Pagina principale
METAR-TAF:

METAR-TAF

Aeroporti :

Saint-Yan, Francia

latitudine: 46-24-45N, longitudine: 004-00-48E, altezza: 244 m

Osservazione

Il bollettino è stato emesso 20 minuti fa, alle 05:30 UTC
Vento 1 kt da direzioni variabili
Temperature 15°C
Umidità 94%
Pressione 1016 hPa
Visibilità 10 km o più
pioggia debole

METAR: LFLN 030530Z AUTO VRB01KT 9999 -RA SCT027/// BKN033/// OVC046/// ///CB 15/14 Q1016 TEMPO SHRA

Ora: 07:50 (05:50 UTC)

Previsione

Il bollettino è stato emesso 50 minuti fa, alle 05:00 UTC
Previsione valida dal 03 alle 06 UTC al 03 alle 15 UTC
Vento 3 kt da direzioni variabili
Visibilità 10 km o più
nessuna nube inferiore a 1500 m e nessun cumulonembo
Temporaneamente
dal 03 alle 06 UTC al 03 alle 15 UTC
Poco nuvoloso ad un'altezza di 3000 ft, Cumulonembo.
rovesci di pioggia

TAF: LFLN 030500Z 0306/0315 VRB03KT CAVOK TEMPO 0306/0315 SHRA FEW030CB

Osservazioni e previsioni meteorologiche di più di 4000 aeroporti (messaggi METAR e TAF).

Le stazioni disponibili sono rappresentate dai dischi gialli e rossi sulla carta.

Puntare il mouse per vedere il nome della stazione.

Clicca sopra per visualizzare le osservazioni e previsioni meteorologiche.

Per cambiare la mappa : fare clic sui pulsanti verdi con una croce nera per ingrandire, il pulsante verde con un trattino per diminuire, o sulla freccia verde per le mappe adiacenti.


METAR-TAF: